sensor_id;sensor_type;location;lat;lon;timestamp;P1;durP1;ratioP1;P2;durP2;ratioP2
20080;SDS011;10200;49.232;9.222;2022-07-10T00:02:11;4.00;;;2.78;;
20080;SDS011;10200;49.232;9.222;2022-07-10T00:04:36;2.75;;;2.38;;
20080;SDS011;10200;49.232;9.222;2022-07-10T00:07:02;2.58;;;2.35;;
20080;SDS011;10200;49.232;9.222;2022-07-10T00:09:28;2.63;;;2.42;;
20080;SDS011;10200;49.232;9.222;2022-07-10T00:11:54;5.93;;;2.03;;
20080;SDS011;10200;49.232;9.222;2022-07-10T00:14:20;5.32;;;3.67;;
20080;SDS011;10200;49.232;9.222;2022-07-10T00:16:46;2.67;;;2.40;;
20080;SDS011;10200;49.232;9.222;2022-07-10T00:19:11;2.75;;;2.55;;
20080;SDS011;10200;49.232;9.222;2022-07-10T00:21:37;2.53;;;2.30;;
20080;SDS011;10200;49.232;9.222;2022-07-10T00:24:03;14.48;;;3.22;;
20080;SDS011;10200;49.232;9.222;2022-07-10T00:26:29;2.63;;;2.17;;
20080;SDS011;10200;49.232;9.222;2022-07-10T00:28:55;2.45;;;2.25;;
20080;SDS011;10200;49.232;9.222;2022-07-10T00:31:20;4.53;;;2.83;;
20080;SDS011;10200;49.232;9.222;2022-07-10T00:33:46;3.78;;;2.58;;
20080;SDS011;10200;49.232;9.222;2022-07-10T00:36:13;3.00;;;2.70;;
20080;SDS011;10200;49.232;9.222;2022-07-10T00:38:39;3.28;;;2.70;;
20080;SDS011;10200;49.232;9.222;2022-07-10T00:41:05;2.75;;;2.50;;
20080;SDS011;10200;49.232;9.222;2022-07-10T00:43:50;3.30;;;2.83;;
20080;SDS011;10200;49.232;9.222;2022-07-10T00:46:17;3.97;;;2.60;;
20080;SDS011;10200;49.232;9.222;2022-07-10T00:48:45;24.23;;;4.50;;
20080;SDS011;10200;49.232;9.222;2022-07-10T00:51:12;6.20;;;2.72;;
20080;SDS011;10200;49.232;9.222;2022-07-10T00:53:38;3.38;;;3.08;;
20080;SDS011;10200;49.232;9.222;2022-07-10T00:56:05;3.40;;;2.97;;
20080;SDS011;10200;49.232;9.222;2022-07-10T00:58:32;2.70;;;2.50;;
20080;SDS011;10200;49.232;9.222;2022-07-10T01:00:59;3.00;;;2.63;;
20080;SDS011;10200;49.232;9.222;2022-07-10T01:03:25;3.42;;;2.50;;
20080;SDS011;10200;49.232;9.222;2022-07-10T01:05:50;3.03;;;2.50;;
20080;SDS011;10200;49.232;9.222;2022-07-10T01:08:16;2.67;;;2.47;;
20080;SDS011;10200;49.232;9.222;2022-07-10T01:10:42;3.08;;;2.80;;
20080;SDS011;10200;49.232;9.222;2022-07-10T01:13:08;2.65;;;2.45;;
20080;SDS011;10200;49.232;9.222;2022-07-10T01:15:34;3.50;;;3.20;;
20080;SDS011;10200;49.232;9.222;2022-07-10T01:18:01;12.07;;;3.27;;
20080;SDS011;10200;49.232;9.222;2022-07-10T01:20:30;3.10;;;2.80;;
20080;SDS011;10200;49.232;9.222;2022-07-10T01:22:57;3.47;;;2.70;;
20080;SDS011;10200;49.232;9.222;2022-07-10T01:25:22;20.23;;;3.63;;
20080;SDS011;10200;49.232;9.222;2022-07-10T01:27:49;5.37;;;3.43;;
20080;SDS011;10200;49.232;9.222;2022-07-10T01:30:15;3.57;;;2.97;;
20080;SDS011;10200;49.232;9.222;2022-07-10T01:32:41;3.77;;;2.93;;
20080;SDS011;10200;49.232;9.222;2022-07-10T01:35:07;4.10;;;2.87;;
20080;SDS011;10200;49.232;9.222;2022-07-10T01:37:33;3.63;;;3.23;;
20080;SDS011;10200;49.232;9.222;2022-07-10T01:39:59;7.47;;;2.90;;
20080;SDS011;10200;49.232;9.222;2022-07-10T01:42:24;22.30;;;4.17;;
20080;SDS011;10200;49.232;9.222;2022-07-10T01:44:50;3.00;;;2.67;;
20080;SDS011;10200;49.232;9.222;2022-07-10T01:47:16;4.17;;;2.53;;
20080;SDS011;10200;49.232;9.222;2022-07-10T01:49:41;2.83;;;2.63;;
20080;SDS011;10200;49.232;9.222;2022-07-10T01:52:07;4.37;;;2.60;;
20080;SDS011;10200;49.232;9.222;2022-07-10T01:54:32;2.73;;;2.53;;
20080;SDS011;10200;49.232;9.222;2022-07-10T01:56:58;2.80;;;2.50;;
20080;SDS011;10200;49.232;9.222;2022-07-10T01:59:24;4.60;;;2.57;;
20080;SDS011;10200;49.232;9.222;2022-07-10T02:01:49;2.57;;;2.37;;
20080;SDS011;10200;49.232;9.222;2022-07-10T02:04:15;3.63;;;2.43;;
20080;SDS011;10200;49.232;9.222;2022-07-10T02:06:59;2.50;;;2.30;;
20080;SDS011;10200;49.232;9.222;2022-07-10T02:09:24;4.83;;;2.67;;
20080;SDS011;10200;49.232;9.222;2022-07-10T02:11:50;3.47;;;2.40;;
20080;SDS011;10200;49.232;9.222;2022-07-10T02:14:15;3.67;;;2.50;;
20080;SDS011;10200;49.232;9.222;2022-07-10T02:16:41;8.87;;;2.60;;
20080;SDS011;10200;49.232;9.222;2022-07-10T02:19:08;7.20;;;3.57;;
20080;SDS011;10200;49.232;9.222;2022-07-10T02:21:34;2.97;;;2.37;;
20080;SDS011;10200;49.232;9.222;2022-07-10T02:24:00;3.07;;;2.63;;
20080;SDS011;10200;49.232;9.222;2022-07-10T02:26:25;3.50;;;3.00;;
20080;SDS011;10200;49.232;9.222;2022-07-10T02:28:51;3.30;;;2.53;;
20080;SDS011;10200;49.232;9.222;2022-07-10T02:31:16;2.67;;;2.30;;
20080;SDS011;10200;49.232;9.222;2022-07-10T02:33:42;3.17;;;2.87;;
20080;SDS011;10200;49.232;9.222;2022-07-10T02:36:08;3.13;;;2.83;;
20080;SDS011;10200;49.232;9.222;2022-07-10T02:38:33;4.83;;;3.40;;
20080;SDS011;10200;49.232;9.222;2022-07-10T02:40:59;7.20;;;2.53;;
20080;SDS011;10200;49.232;9.222;2022-07-10T02:43:24;3.30;;;2.77;;
20080;SDS011;10200;49.232;9.222;2022-07-10T02:45:50;4.47;;;2.90;;
20080;SDS011;10200;49.232;9.222;2022-07-10T02:48:15;3.33;;;2.50;;
20080;SDS011;10200;49.232;9.222;2022-07-10T02:50:43;2.63;;;2.43;;
20080;SDS011;10200;49.232;9.222;2022-07-10T02:53:09;4.27;;;2.87;;
20080;SDS011;10200;49.232;9.222;2022-07-10T02:55:34;6.77;;;2.80;;
20080;SDS011;10200;49.232;9.222;2022-07-10T02:58:00;3.27;;;2.47;;
20080;SDS011;10200;49.232;9.222;2022-07-10T03:00:26;3.77;;;2.47;;
20080;SDS011;10200;49.232;9.222;2022-07-10T03:02:52;2.93;;;2.63;;
20080;SDS011;10200;49.232;9.222;2022-07-10T03:05:19;4.00;;;2.67;;
20080;SDS011;10200;49.232;9.222;2022-07-10T03:07:45;3.10;;;2.60;;
20080;SDS011;10200;49.232;9.222;2022-07-10T03:10:10;5.10;;;2.67;;
20080;SDS011;10200;49.232;9.222;2022-07-10T03:12:36;3.00;;;2.23;;
20080;SDS011;10200;49.232;9.222;2022-07-10T03:15:02;7.03;;;2.80;;
20080;SDS011;10200;49.232;9.222;2022-07-10T03:17:29;3.43;;;2.53;;
20080;SDS011;10200;49.232;9.222;2022-07-10T03:19:55;3.87;;;2.80;;
20080;SDS011;10200;49.232;9.222;2022-07-10T03:22:20;4.87;;;2.80;;
20080;SDS011;10200;49.232;9.222;2022-07-10T03:24:46;4.10;;;2.63;;
20080;SDS011;10200;49.232;9.222;2022-07-10T03:27:12;5.03;;;3.00;;
20080;SDS011;10200;49.232;9.222;2022-07-10T03:29:38;3.07;;;2.80;;
20080;SDS011;10200;49.232;9.222;2022-07-10T03:32:04;3.40;;;2.60;;
20080;SDS011;10200;49.232;9.222;2022-07-10T03:34:30;3.17;;;2.87;;
20080;SDS011;10200;49.232;9.222;2022-07-10T03:36:57;3.40;;;3.00;;
20080;SDS011;10200;49.232;9.222;2022-07-10T03:39:23;2.50;;;2.27;;
20080;SDS011;10200;49.232;9.222;2022-07-10T03:41:49;3.70;;;2.83;;
20080;SDS011;10200;49.232;9.222;2022-07-10T03:44:14;2.70;;;2.50;;
20080;SDS011;10200;49.232;9.222;2022-07-10T03:46:40;3.27;;;2.93;;
20080;SDS011;10200;49.232;9.222;2022-07-10T03:49:05;4.23;;;2.57;;
20080;SDS011;10200;49.232;9.222;2022-07-10T03:51:31;4.13;;;2.63;;
20080;SDS011;10200;49.232;9.222;2022-07-10T03:53:56;7.43;;;2.47;;
20080;SDS011;10200;49.232;9.222;2022-07-10T03:56:22;3.83;;;3.20;;
20080;SDS011;10200;49.232;9.222;2022-07-10T03:59:06;3.07;;;2.77;;
20080;SDS011;10200;49.232;9.222;2022-07-10T04:01:31;3.20;;;2.50;;
20080;SDS011;10200;49.232;9.222;2022-07-10T04:03:57;3.10;;;2.77;;
20080;SDS011;10200;49.232;9.222;2022-07-10T04:06:23;4.50;;;2.67;;
20080;SDS011;10200;49.232;9.222;2022-07-10T04:08:48;9.40;;;2.80;;
20080;SDS011;10200;49.232;9.222;2022-07-10T04:11:14;3.03;;;2.67;;
20080;SDS011;10200;49.232;9.222;2022-07-10T04:13:39;4.27;;;3.03;;
20080;SDS011;10200;49.232;9.222;2022-07-10T04:16:05;5.83;;;2.80;;
20080;SDS011;10200;49.232;9.222;2022-07-10T04:18:31;3.37;;;3.07;;
20080;SDS011;10200;49.232;9.222;2022-07-10T04:20:56;5.07;;;3.30;;
20080;SDS011;10200;49.232;9.222;2022-07-10T04:23:22;5.30;;;2.33;;
20080;SDS011;10200;49.232;9.222;2022-07-10T04:25:47;4.03;;;2.50;;
20080;SDS011;10200;49.232;9.222;2022-07-10T04:28:13;3.10;;;2.80;;
20080;SDS011;10200;49.232;9.222;2022-07-10T04:30:39;3.27;;;2.97;;
20080;SDS011;10200;49.232;9.222;2022-07-10T04:33:04;2.70;;;2.50;;
20080;SDS011;10200;49.232;9.222;2022-07-10T04:35:30;4.20;;;3.07;;
20080;SDS011;10200;49.232;9.222;2022-07-10T04:37:55;5.37;;;2.70;;
20080;SDS011;10200;49.232;9.222;2022-07-10T04:40:22;6.00;;;2.70;;
20080;SDS011;10200;49.232;9.222;2022-07-10T04:42:47;4.97;;;2.13;;
20080;SDS011;10200;49.232;9.222;2022-07-10T04:45:13;4.47;;;2.30;;
20080;SDS011;10200;49.232;9.222;2022-07-10T04:47:39;4.88;;;2.40;;
20080;SDS011;10200;49.232;9.222;2022-07-10T04:50:04;4.07;;;2.30;;
20080;SDS011;10200;49.232;9.222;2022-07-10T04:52:30;4.00;;;1.90;;
20080;SDS011;10200;49.232;9.222;2022-07-10T04:54:56;3.92;;;1.95;;
20080;SDS011;10200;49.232;9.222;2022-07-10T04:57:22;2.92;;;1.80;;
20080;SDS011;10200;49.232;9.222;2022-07-10T04:59:47;7.07;;;2.17;;
20080;SDS011;10200;49.232;9.222;2022-07-10T05:02:13;4.13;;;2.45;;
20080;SDS011;10200;49.232;9.222;2022-07-10T05:04:38;2.25;;;1.48;;
20080;SDS011;10200;49.232;9.222;2022-07-10T05:07:04;5.88;;;2.35;;
20080;SDS011;10200;49.232;9.222;2022-07-10T05:09:30;5.88;;;1.85;;
20080;SDS011;10200;49.232;9.222;2022-07-10T05:11:55;7.05;;;1.85;;
20080;SDS011;10200;49.232;9.222;2022-07-10T05:14:21;4.28;;;1.80;;
20080;SDS011;10200;49.232;9.222;2022-07-10T05:16:46;2.47;;;1.50;;
20080;SDS011;10200;49.232;9.222;2022-07-10T05:19:12;6.15;;;1.88;;
20080;SDS011;10200;49.232;9.222;2022-07-10T05:21:38;7.15;;;1.85;;
20080;SDS011;10200;49.232;9.222;2022-07-10T05:24:03;1.48;;;1.20;;
20080;SDS011;10200;49.232;9.222;2022-07-10T05:26:29;2.08;;;1.50;;
20080;SDS011;10200;49.232;9.222;2022-07-10T05:28:54;2.63;;;1.67;;
20080;SDS011;10200;49.232;9.222;2022-07-10T05:31:20;2.90;;;1.98;;
20080;SDS011;10200;49.232;9.222;2022-07-10T05:33:46;3.75;;;1.80;;
20080;SDS011;10200;49.232;9.222;2022-07-10T05:36:11;3.80;;;1.80;;
20080;SDS011;10200;49.232;9.222;2022-07-10T05:38:37;2.78;;;1.80;;
20080;SDS011;10200;49.232;9.222;2022-07-10T05:41:03;1.98;;;1.33;;
20080;SDS011;10200;49.232;9.222;2022-07-10T05:43:28;3.97;;;1.30;;
20080;SDS011;10200;49.232;9.222;2022-07-10T05:45:55;2.03;;;1.80;;
20080;SDS011;10200;49.232;9.222;2022-07-10T05:48:20;3.20;;;1.60;;
20080;SDS011;10200;49.232;9.222;2022-07-10T05:50:46;2.67;;;1.65;;
20080;SDS011;10200;49.232;9.222;2022-07-10T05:53:11;3.75;;;1.30;;
20080;SDS011;10200;49.232;9.222;2022-07-10T05:55:37;3.85;;;1.60;;
20080;SDS011;10200;49.232;9.222;2022-07-10T05:58:02;4.30;;;1.70;;
20080;SDS011;10200;49.232;9.222;2022-07-10T06:00:28;1.58;;;1.40;;
20080;SDS011;10200;49.232;9.222;2022-07-10T06:02:54;2.20;;;1.20;;
20080;SDS011;10200;49.232;9.222;2022-07-10T06:05:19;3.13;;;1.65;;
20080;SDS011;10200;49.232;9.222;2022-07-10T06:07:45;1.52;;;1.20;;
20080;SDS011;10200;49.232;9.222;2022-07-10T06:10:10;2.75;;;1.20;;
20080;SDS011;10200;49.232;9.222;2022-07-10T06:12:36;2.35;;;1.10;;
20080;SDS011;10200;49.232;9.222;2022-07-10T06:15:02;1.65;;;1.33;;
20080;SDS011;10200;49.232;9.222;2022-07-10T06:17:28;3.45;;;1.52;;
20080;SDS011;10200;49.232;9.222;2022-07-10T06:19:54;1.55;;;1.15;;
20080;SDS011;10200;49.232;9.222;2022-07-10T06:22:19;5.40;;;1.20;;
20080;SDS011;10200;49.232;9.222;2022-07-10T06:24:58;1.70;;;1.10;;
20080;SDS011;10200;49.232;9.222;2022-07-10T06:27:24;3.83;;;1.52;;
20080;SDS011;10200;49.232;9.222;2022-07-10T06:29:50;2.85;;;1.20;;
20080;SDS011;10200;49.232;9.222;2022-07-10T06:32:15;2.58;;;1.13;;
20080;SDS011;10200;49.232;9.222;2022-07-10T06:34:41;1.60;;;1.15;;
20080;SDS011;10200;49.232;9.222;2022-07-10T06:37:07;1.08;;;0.90;;
20080;SDS011;10200;49.232;9.222;2022-07-10T06:39:33;4.55;;;1.35;;
20080;SDS011;10200;49.232;9.222;2022-07-10T06:41:59;1.17;;;0.93;;
20080;SDS011;10200;49.232;9.222;2022-07-10T06:44:26;1.50;;;0.98;;
20080;SDS011;10200;49.232;9.222;2022-07-10T06:46:52;1.95;;;0.90;;
20080;SDS011;10200;49.232;9.222;2022-07-10T06:49:36;1.23;;;0.77;;
20080;SDS011;10200;49.232;9.222;2022-07-10T06:52:02;1.83;;;1.05;;
20080;SDS011;10200;49.232;9.222;2022-07-10T06:54:27;1.27;;;0.93;;
20080;SDS011;10200;49.232;9.222;2022-07-10T06:56:53;2.53;;;1.02;;
20080;SDS011;10200;49.232;9.222;2022-07-10T06:59:19;1.75;;;1.30;;
20080;SDS011;10200;49.232;9.222;2022-07-10T07:01:44;1.58;;;1.00;;
20080;SDS011;10200;49.232;9.222;2022-07-10T07:04:10;1.48;;;0.75;;
20080;SDS011;10200;49.232;9.222;2022-07-10T07:06:35;3.95;;;0.90;;
20080;SDS011;10200;49.232;9.222;2022-07-10T07:09:01;2.60;;;0.70;;
20080;SDS011;10200;49.232;9.222;2022-07-10T07:11:27;1.27;;;0.82;;
20080;SDS011;10200;49.232;9.222;2022-07-10T07:13:52;1.98;;;1.00;;
20080;SDS011;10200;49.232;9.222;2022-07-10T07:16:18;1.98;;;0.73;;
20080;SDS011;10200;49.232;9.222;2022-07-10T07:18:45;2.83;;;1.02;;
20080;SDS011;10200;49.232;9.222;2022-07-10T07:21:17;1.67;;;0.90;;
20080;SDS011;10200;49.232;9.222;2022-07-10T07:24:01;1.33;;;0.60;;
20080;SDS011;10200;49.232;9.222;2022-07-10T07:26:28;1.05;;;0.70;;
20080;SDS011;10200;49.232;9.222;2022-07-10T07:28:54;3.40;;;0.85;;
20080;SDS011;10200;49.232;9.222;2022-07-10T07:31:20;2.88;;;0.68;;
20080;SDS011;10200;49.232;9.222;2022-07-10T07:33:45;2.10;;;0.80;;
20080;SDS011;10200;49.232;9.222;2022-07-10T07:36:11;1.13;;;0.82;;
20080;SDS011;10200;49.232;9.222;2022-07-10T07:38:37;2.85;;;0.70;;
20080;SDS011;10200;49.232;9.222;2022-07-10T07:41:02;1.42;;;0.60;;
20080;SDS011;10200;49.232;9.222;2022-07-10T07:43:28;2.47;;;1.00;;
20080;SDS011;10200;49.232;9.222;2022-07-10T07:45:53;1.15;;;0.60;;
20080;SDS011;10200;49.232;9.222;2022-07-10T07:48:19;0.75;;;0.50;;
20080;SDS011;10200;49.232;9.222;2022-07-10T07:50:45;1.73;;;0.70;;
20080;SDS011;10200;49.232;9.222;2022-07-10T07:53:10;0.80;;;0.50;;
20080;SDS011;10200;49.232;9.222;2022-07-10T07:55:37;0.85;;;0.70;;
20080;SDS011;10200;49.232;9.222;2022-07-10T07:58:03;1.13;;;0.80;;
20080;SDS011;10200;49.232;9.222;2022-07-10T08:00:29;1.65;;;0.75;;
20080;SDS011;10200;49.232;9.222;2022-07-10T08:02:56;0.70;;;0.63;;
20080;SDS011;10200;49.232;9.222;2022-07-10T08:05:22;2.25;;;0.90;;
20080;SDS011;10200;49.232;9.222;2022-07-10T08:07:50;1.75;;;0.52;;
20080;SDS011;10200;49.232;9.222;2022-07-10T08:10:18;0.43;;;0.43;;
20080;SDS011;10200;49.232;9.222;2022-07-10T08:12:46;2.38;;;0.52;;
20080;SDS011;10200;49.232;9.222;2022-07-10T08:15:13;0.63;;;0.35;;
20080;SDS011;10200;49.232;9.222;2022-07-10T08:17:41;1.30;;;0.50;;
20080;SDS011;10200;49.232;9.222;2022-07-10T08:20:07;2.45;;;1.33;;
20080;SDS011;10200;49.232;9.222;2022-07-10T08:22:36;1.70;;;0.75;;
20080;SDS011;10200;49.232;9.222;2022-07-10T08:25:01;2.85;;;1.00;;
20080;SDS011;10200;49.232;9.222;2022-07-10T08:27:27;1.05;;;0.70;;
20080;SDS011;10200;49.232;9.222;2022-07-10T08:29:53;1.42;;;0.60;;
20080;SDS011;10200;49.232;9.222;2022-07-10T08:32:19;1.40;;;0.60;;
20080;SDS011;10200;49.232;9.222;2022-07-10T08:34:44;1.88;;;0.65;;
20080;SDS011;10200;49.232;9.222;2022-07-10T08:37:10;2.88;;;0.50;;
20080;SDS011;10200;49.232;9.222;2022-07-10T08:39:35;0.70;;;0.45;;
20080;SDS011;10200;49.232;9.222;2022-07-10T08:42:01;3.00;;;0.85;;
20080;SDS011;10200;49.232;9.222;2022-07-10T08:44:29;3.22;;;0.57;;
20080;SDS011;10200;49.232;9.222;2022-07-10T08:46:55;1.52;;;0.70;;
20080;SDS011;10200;49.232;9.222;2022-07-10T08:49:25;2.58;;;0.70;;
20080;SDS011;10200;49.232;9.222;2022-07-10T08:52:03;1.27;;;0.50;;
20080;SDS011;10200;49.232;9.222;2022-07-10T08:54:41;0.77;;;0.50;;
20080;SDS011;10200;49.232;9.222;2022-07-10T08:57:06;1.25;;;0.70;;
20080;SDS011;10200;49.232;9.222;2022-07-10T08:59:34;0.60;;;0.60;;
20080;SDS011;10200;49.232;9.222;2022-07-10T09:02:00;1.30;;;0.80;;
20080;SDS011;10200;49.232;9.222;2022-07-10T09:04:26;0.95;;;0.57;;
20080;SDS011;10200;49.232;9.222;2022-07-10T09:06:53;1.55;;;0.73;;
20080;SDS011;10200;49.232;9.222;2022-07-10T09:09:20;0.80;;;0.70;;
20080;SDS011;10200;49.232;9.222;2022-07-10T09:11:46;3.42;;;0.73;;
20080;SDS011;10200;49.232;9.222;2022-07-10T09:14:15;3.63;;;0.70;;
20080;SDS011;10200;49.232;9.222;2022-07-10T09:16:42;0.70;;;0.68;;
20080;SDS011;10200;49.232;9.222;2022-07-10T09:19:19;1.85;;;0.82;;
20080;SDS011;10200;49.232;9.222;2022-07-10T09:21:54;0.90;;;0.50;;
20080;SDS011;10200;49.232;9.222;2022-07-10T09:24:36;1.90;;;1.38;;
20080;SDS011;10200;49.232;9.222;2022-07-10T09:27:12;0.98;;;0.63;;
20080;SDS011;10200;49.232;9.222;2022-07-10T09:32:12;0.98;;;0.50;;
20080;SDS011;10200;49.232;9.222;2022-07-10T09:39:50;1.08;;;0.50;;
20080;SDS011;10200;49.232;9.222;2022-07-10T09:42:24;1.85;;;0.85;;
20080;SDS011;10200;49.232;9.222;2022-07-10T09:50:28;1.38;;;0.52;;
20080;SDS011;10200;49.232;9.222;2022-07-10T09:52:59;1.02;;;0.68;;
20080;SDS011;10200;49.232;9.222;2022-07-10T09:55:29;0.60;;;0.55;;
20080;SDS011;10200;49.232;9.222;2022-07-10T09:58:03;1.95;;;0.75;;
20080;SDS011;10200;49.232;9.222;2022-07-10T10:00:37;3.28;;;0.68;;
20080;SDS011;10200;49.232;9.222;2022-07-10T10:03:06;1.52;;;0.80;;
20080;SDS011;10200;49.232;9.222;2022-07-10T10:08:12;0.60;;;0.50;;
20080;SDS011;10200;49.232;9.222;2022-07-10T10:10:49;1.63;;;0.70;;
20080;SDS011;10200;49.232;9.222;2022-07-10T10:13:16;2.30;;;0.47;;
20080;SDS011;10200;49.232;9.222;2022-07-10T10:15:47;1.08;;;0.68;;
20080;SDS011;10200;49.232;9.222;2022-07-10T10:18:15;0.85;;;0.70;;
20080;SDS011;10200;49.232;9.222;2022-07-10T10:20:43;1.60;;;0.60;;
20080;SDS011;10200;49.232;9.222;2022-07-10T10:23:12;1.00;;;0.50;;
20080;SDS011;10200;49.232;9.222;2022-07-10T10:25:39;2.05;;;0.57;;
20080;SDS011;10200;49.232;9.222;2022-07-10T10:28:05;2.35;;;0.70;;
20080;SDS011;10200;49.232;9.222;2022-07-10T10:30:35;0.82;;;0.70;;
20080;SDS011;10200;49.232;9.222;2022-07-10T10:35:57;1.33;;;0.82;;
20080;SDS011;10200;49.232;9.222;2022-07-10T10:38:24;0.68;;;0.40;;
20080;SDS011;10200;49.232;9.222;2022-07-10T10:40:49;1.05;;;0.75;;
20080;SDS011;10200;49.232;9.222;2022-07-10T10:43:24;1.77;;;0.40;;
20080;SDS011;10200;49.232;9.222;2022-07-10T10:45:50;1.75;;;0.85;;
20080;SDS011;10200;49.232;9.222;2022-07-10T10:48:19;3.03;;;1.23;;
20080;SDS011;10200;49.232;9.222;2022-07-10T10:58:26;1.05;;;0.82;;
20080;SDS011;10200;49.232;9.222;2022-07-10T11:01:04;2.22;;;0.63;;
20080;SDS011;10200;49.232;9.222;2022-07-10T11:03:30;1.00;;;0.40;;
20080;SDS011;10200;49.232;9.222;2022-07-10T11:05:56;1.00;;;0.57;;
20080;SDS011;10200;49.232;9.222;2022-07-10T11:08:41;3.67;;;0.60;;
20080;SDS011;10200;49.232;9.222;2022-07-10T11:11:52;2.97;;;0.73;;
20080;SDS011;10200;49.232;9.222;2022-07-10T11:14:00;0.65;;;0.50;;
20080;SDS011;10200;49.232;9.222;2022-07-10T11:16:29;1.00;;;0.40;;
20080;SDS011;10200;49.232;9.222;2022-07-10T11:18:57;2.75;;;0.52;;
20080;SDS011;10200;49.232;9.222;2022-07-10T11:21:26;1.88;;;0.60;;
20080;SDS011;10200;49.232;9.222;2022-07-10T11:29:37;1.75;;;0.80;;
20080;SDS011;10200;49.232;9.222;2022-07-10T11:32:03;1.23;;;0.60;;
20080;SDS011;10200;49.232;9.222;2022-07-10T11:34:35;0.65;;;0.45;;
20080;SDS011;10200;49.232;9.222;2022-07-10T11:37:02;1.98;;;0.70;;
20080;SDS011;10200;49.232;9.222;2022-07-10T11:39:28;1.27;;;0.40;;
20080;SDS011;10200;49.232;9.222;2022-07-10T11:41:54;2.05;;;0.70;;
20080;SDS011;10200;49.232;9.222;2022-07-10T11:44:19;1.27;;;0.43;;
20080;SDS011;10200;49.232;9.222;2022-07-10T11:46:46;0.90;;;0.50;;
20080;SDS011;10200;49.232;9.222;2022-07-10T11:49:14;1.05;;;0.50;;
20080;SDS011;10200;49.232;9.222;2022-07-10T11:51:41;1.98;;;0.50;;
20080;SDS011;10200;49.232;9.222;2022-07-10T11:54:12;2.28;;;0.55;;
20080;SDS011;10200;49.232;9.222;2022-07-10T11:56:42;1.65;;;0.40;;
20080;SDS011;10200;49.232;9.222;2022-07-10T11:59:16;0.82;;;0.50;;
20080;SDS011;10200;49.232;9.222;2022-07-10T12:01:46;1.75;;;0.70;;
20080;SDS011;10200;49.232;9.222;2022-07-10T12:04:14;2.25;;;0.70;;
20080;SDS011;10200;49.232;9.222;2022-07-10T12:06:42;1.17;;;0.50;;
20080;SDS011;10200;49.232;9.222;2022-07-10T12:11:36;0.73;;;0.60;;
20080;SDS011;10200;49.232;9.222;2022-07-10T12:14:35;2.08;;;0.50;;
20080;SDS011;10200;49.232;9.222;2022-07-10T12:16:54;0.70;;;0.40;;
20080;SDS011;10200;49.232;9.222;2022-07-10T12:19:25;1.70;;;0.43;;
20080;SDS011;10200;49.232;9.222;2022-07-10T12:21:55;2.00;;;0.60;;
20080;SDS011;10200;49.232;9.222;2022-07-10T12:24:21;2.05;;;0.70;;
20080;SDS011;10200;49.232;9.222;2022-07-10T12:26:49;0.95;;;0.60;;
20080;SDS011;10200;49.232;9.222;2022-07-10T12:31:57;2.85;;;1.23;;
20080;SDS011;10200;49.232;9.222;2022-07-10T12:34:41;2.22;;;0.50;;
20080;SDS011;10200;49.232;9.222;2022-07-10T12:37:08;1.33;;;1.23;;
20080;SDS011;10200;49.232;9.222;2022-07-10T12:39:36;1.75;;;0.68;;
20080;SDS011;10200;49.232;9.222;2022-07-10T12:42:06;2.15;;;0.70;;
20080;SDS011;10200;49.232;9.222;2022-07-10T12:44:33;1.02;;;0.60;;
20080;SDS011;10200;49.232;9.222;2022-07-10T12:47:07;0.65;;;0.32;;
20080;SDS011;10200;49.232;9.222;2022-07-10T12:52:30;1.85;;;0.52;;
20080;SDS011;10200;49.232;9.222;2022-07-10T12:55:07;1.08;;;0.38;;
20080;SDS011;10200;49.232;9.222;2022-07-10T12:57:51;1.45;;;0.73;;
20080;SDS011;10200;49.232;9.222;2022-07-10T13:00:28;2.60;;;1.23;;
20080;SDS011;10200;49.232;9.222;2022-07-10T13:03:05;2.38;;;0.50;;
20080;SDS011;10200;49.232;9.222;2022-07-10T13:10:33;1.20;;;0.70;;
20080;SDS011;10200;49.232;9.222;2022-07-10T13:13:01;2.47;;;0.57;;
20080;SDS011;10200;49.232;9.222;2022-07-10T13:15:27;1.13;;;0.50;;
20080;SDS011;10200;49.232;9.222;2022-07-10T13:17:54;1.48;;;0.70;;
20080;SDS011;10200;49.232;9.222;2022-07-10T13:20:20;2.83;;;0.60;;
20080;SDS011;10200;49.232;9.222;2022-07-10T13:22:46;0.95;;;0.70;;
20080;SDS011;10200;49.232;9.222;2022-07-10T13:25:11;3.03;;;0.70;;
20080;SDS011;10200;49.232;9.222;2022-07-10T13:27:37;0.73;;;0.35;;
20080;SDS011;10200;49.232;9.222;2022-07-10T13:30:04;2.22;;;0.60;;
20080;SDS011;10200;49.232;9.222;2022-07-10T13:32:30;1.15;;;0.32;;
20080;SDS011;10200;49.232;9.222;2022-07-10T13:34:56;2.22;;;0.50;;
20080;SDS011;10200;49.232;9.222;2022-07-10T13:37:22;1.33;;;0.40;;
20080;SDS011;10200;49.232;9.222;2022-07-10T13:39:48;1.63;;;0.50;;
20080;SDS011;10200;49.232;9.222;2022-07-10T13:42:13;1.30;;;0.40;;
20080;SDS011;10200;49.232;9.222;2022-07-10T13:44:39;1.25;;;0.65;;
20080;SDS011;10200;49.232;9.222;2022-07-10T13:47:05;0.93;;;0.50;;
20080;SDS011;10200;49.232;9.222;2022-07-10T13:49:31;1.45;;;0.40;;
20080;SDS011;10200;49.232;9.222;2022-07-10T13:51:56;1.10;;;0.52;;
20080;SDS011;10200;49.232;9.222;2022-07-10T13:54:22;1.13;;;0.60;;
20080;SDS011;10200;49.232;9.222;2022-07-10T13:56:48;0.40;;;0.40;;
20080;SDS011;10200;49.232;9.222;2022-07-10T13:59:14;0.90;;;0.40;;
20080;SDS011;10200;49.232;9.222;2022-07-10T14:01:39;0.50;;;0.50;;
20080;SDS011;10200;49.232;9.222;2022-07-10T14:04:05;0.93;;;0.60;;
20080;SDS011;10200;49.232;9.222;2022-07-10T14:06:31;0.63;;;0.38;;
20080;SDS011;10200;49.232;9.222;2022-07-10T14:08:57;4.40;;;1.40;;
20080;SDS011;10200;49.232;9.222;2022-07-10T14:11:23;0.80;;;0.47;;
20080;SDS011;10200;49.232;9.222;2022-07-10T14:13:49;1.35;;;0.80;;
20080;SDS011;10200;49.232;9.222;2022-07-10T14:16:14;3.15;;;1.95;;
20080;SDS011;10200;49.232;9.222;2022-07-10T14:18:40;1.67;;;0.90;;
20080;SDS011;10200;49.232;9.222;2022-07-10T14:21:10;0.95;;;0.55;;
20080;SDS011;10200;49.232;9.222;2022-07-10T14:23:38;1.48;;;0.60;;
20080;SDS011;10200;49.232;9.222;2022-07-10T14:26:06;2.47;;;0.60;;
20080;SDS011;10200;49.232;9.222;2022-07-10T14:28:33;0.90;;;0.52;;
20080;SDS011;10200;49.232;9.222;2022-07-10T14:31:02;0.90;;;0.52;;
20080;SDS011;10200;49.232;9.222;2022-07-10T14:33:32;1.40;;;0.95;;
20080;SDS011;10200;49.232;9.222;2022-07-10T14:35:59;0.95;;;0.60;;
20080;SDS011;10200;49.232;9.222;2022-07-10T14:38:25;1.75;;;0.73;;
20080;SDS011;10200;49.232;9.222;2022-07-10T14:40:51;0.98;;;0.55;;
20080;SDS011;10200;49.232;9.222;2022-07-10T14:43:18;1.00;;;0.50;;
20080;SDS011;10200;49.232;9.222;2022-07-10T14:45:44;1.10;;;0.50;;
20080;SDS011;10200;49.232;9.222;2022-07-10T14:48:10;3.03;;;0.82;;
20080;SDS011;10200;49.232;9.222;2022-07-10T14:50:36;2.13;;;0.90;;
20080;SDS011;10200;49.232;9.222;2022-07-10T14:53:02;1.05;;;0.50;;
20080;SDS011;10200;49.232;9.222;2022-07-10T14:55:27;2.28;;;0.57;;
20080;SDS011;10200;49.232;9.222;2022-07-10T14:57:53;0.50;;;0.38;;
20080;SDS011;10200;49.232;9.222;2022-07-10T15:00:19;0.40;;;0.40;;
20080;SDS011;10200;49.232;9.222;2022-07-10T15:02:45;1.98;;;0.82;;
20080;SDS011;10200;49.232;9.222;2022-07-10T15:05:10;0.63;;;0.60;;
20080;SDS011;10200;49.232;9.222;2022-07-10T15:07:36;3.08;;;1.00;;
20080;SDS011;10200;49.232;9.222;2022-07-10T15:10:02;0.93;;;0.55;;
20080;SDS011;10200;49.232;9.222;2022-07-10T15:12:27;2.97;;;0.70;;
20080;SDS011;10200;49.232;9.222;2022-07-10T15:14:57;0.82;;;0.50;;
20080;SDS011;10200;49.232;9.222;2022-07-10T15:17:23;1.95;;;0.77;;
20080;SDS011;10200;49.232;9.222;2022-07-10T15:19:50;1.15;;;0.60;;
20080;SDS011;10200;49.232;9.222;2022-07-10T15:22:15;3.25;;;0.52;;
20080;SDS011;10200;49.232;9.222;2022-07-10T15:24:42;2.72;;;0.80;;
20080;SDS011;10200;49.232;9.222;2022-07-10T15:27:09;3.35;;;0.90;;
20080;SDS011;10200;49.232;9.222;2022-07-10T15:29:35;2.35;;;0.60;;
20080;SDS011;10200;49.232;9.222;2022-07-10T15:32:01;1.40;;;0.70;;
20080;SDS011;10200;49.232;9.222;2022-07-10T15:34:26;2.00;;;0.63;;